NORTHEAST SUFFOLK  -  Rip Current Statement Rip Current Statement        NORTHWEST SUFFOLK  -  Rip Current Statement Rip Current Statement        SOUTHEAST SUFFOLK  -  Rip Current Statement Rip Current Statement        SOUTHWEST SUFFOLK  -  Rip Current Statement Rip Current Statement      

Active alerts

Northwest Suffolk
  Details for Northwest Suffolk Rip Current Statement
Southwest Suffolk
  Details for Southwest Suffolk Rip Current Statement
Northeast Suffolk
  Details for Northeast Suffolk Rip Current Statement
Southeast Suffolk
  Details for Southeast Suffolk Rip Current Statement


WXM80 ListenWXM80 Stop

You find our weather info also at:

UK Metoffice

WeatherCloud

Weather Underground

Northeastern Weather Network

AWEKAS

Citizen Weather Observer Program (CWOP)

HAMweather, WeatherForYou, PWS Weather


Weather Underground History page Text

Daily Summary for February 20, 2018 Units:  Metric    English   Both
« Previous Day
Next Day »
Daily Weekly Monthly Yearly Custom
  High: Low: Average:
Temperature: 20 °C 9.4 °C 13.6 °C
Dew Point: 14.6 °C 8.9 °C 11.6 °C
Humidity: 98 % 69 % 89 %
Wind Speed: 13.5 km/h 0 km/h 4.7 km/h
Wind Gust: 25.9 km/h - -
Wind:- - SW
Pressure: 1018.5 hPa 1016.1 hPa -
Precipitation: 0 mm    
Historical Graphs
 
 
Tabular Data for February 20, 2018
Time Temperature Dew Point Pressure Wind Wind Speed Wind Gust Humidity Rainfall Rate (Hourly)
00:01 9.9 °C 9.5 °C 1017.5 hPa SSW 4.2 km/h 7.4 km/h 97 % 0 mm
00:06 9.9 °C 9.5 °C 1017.5 hPa South 4.3 km/h 7.4 km/h 97 % 0 mm
00:11 9.9 °C 9.4 °C 1017.5 hPa South 4.2 km/h 8 km/h 97 % 0 mm
00:16 9.8 °C 9.4 °C 1017.5 hPa South 4.3 km/h 11.1 km/h 97 % 0 mm
00:21 9.8 °C 9.4 °C 1017.5 hPa SSW 5.5 km/h 9.3 km/h 97 % 0 mm
00:26 9.8 °C 9.4 °C 1017.2 hPa SSW 5.5 km/h 11.1 km/h 97 % 0 mm
00:31 9.8 °C 9.3 °C 1017.5 hPa SSW 6.9 km/h 11.1 km/h 97 % 0 mm
00:36 9.8 °C 9.3 °C 1017.5 hPa South 5.1 km/h 9.3 km/h 97 % 0 mm
00:41 9.7 °C 9.3 °C 1017.5 hPa South 6.4 km/h 11.1 km/h 97 % 0 mm
00:46 9.7 °C 9.2 °C 1017.2 hPa SSW 7.4 km/h 11.3 km/h 97 % 0 mm
00:51 9.6 °C 9.2 °C 1017.2 hPa SSW 7.2 km/h 11.3 km/h 97 % 0 mm
00:56 9.6 °C 9.1 °C 1017.2 hPa South 4.3 km/h 7.4 km/h 97 % 0 mm
01:01 9.5 °C 9.1 °C 1017.5 hPa SSW 7.7 km/h 9.3 km/h 97 % 0 mm
01:06 9.4 °C 9 °C 1017.5 hPa South 2.7 km/h 7.4 km/h 97 % 0 mm
01:11 9.4 °C 9 °C 1017.2 hPa SSW 1.1 km/h 7.4 km/h 97 % 0 mm
01:16 9.4 °C 8.9 °C 1017.2 hPa South 7.1 km/h 16.7 km/h 97 % 0 mm
01:21 9.4 °C 9 °C 1017.2 hPa SW 4.7 km/h 5.6 km/h 97 % 0 mm
01:27 9.4 °C 8.9 °C 1017.5 hPa SW 5.1 km/h 9.3 km/h 97 % 0 mm
01:32 9.4 °C 8.9 °C 1017.2 hPa SSW 7.2 km/h 11.1 km/h 97 % 0 mm
01:37 9.4 °C 9 °C 1017.2 hPa SSW 5.6 km/h 11.1 km/h 97 % 0 mm
01:42 9.4 °C 9 °C 1017.2 hPa SSW 5.8 km/h 8 km/h 97 % 0 mm
01:47 9.4 °C 9 °C 1017.2 hPa South 4.3 km/h 11.1 km/h 97 % 0 mm
01:52 9.4 °C 9 °C 1017.2 hPa SSW 3.5 km/h 7.4 km/h 97 % 0 mm
01:57 9.4 °C 9 °C 1017.2 hPa South 7.9 km/h 11.3 km/h 97 % 0 mm
02:02 9.4 °C 9 °C 1017.2 hPa SSW 3.5 km/h 5.6 km/h 97 % 0 mm
02:07 9.4 °C 9 °C 1017.2 hPa SSW 1.6 km/h 9.3 km/h 97 % 0 mm
02:12 9.4 °C 9 °C 1017.2 hPa South 5.5 km/h 11.1 km/h 97 % 0 mm
02:17 9.4 °C 9 °C 1017.2 hPa South 3.7 km/h 9.7 km/h 97 % 0 mm
02:22 9.4 °C 9 °C 1017.2 hPa South 7.9 km/h 11.1 km/h 97 % 0 mm
02:27 9.4 °C 9 °C 1017.2 hPa SW 4.5 km/h 9.3 km/h 97 % 0 mm
02:32 9.4 °C 9 °C 1017.2 hPa WSW 5.8 km/h 11.3 km/h 97 % 0 mm
02:37 9.4 °C 9 °C 1017.2 hPa SW 9 km/h 13 km/h 97 % 0 mm
02:43 9.4 °C 9 °C 1017.2 hPa SW 2.4 km/h 7.4 km/h 97 % 0 mm
02:48 9.4 °C 9 °C 1017.2 hPa SSW 3.7 km/h 7.4 km/h 97 % 0 mm
02:53 9.4 °C 9 °C 1017.2 hPa SW 3.9 km/h 5.6 km/h 97 % 0 mm
02:58 9.4 °C 9 °C 1017.2 hPa SW 5.6 km/h 11.1 km/h 97 % 0 mm
03:03 9.5 °C 9.1 °C 1017.2 hPa SSW 5 km/h 11.1 km/h 97 % 0 mm
03:08 9.5 °C 9.1 °C 1017.2 hPa SW 1.8 km/h 7.4 km/h 97 % 0 mm
03:13 9.5 °C 9.1 °C 1017.2 hPa South 3.5 km/h 8 km/h 97 % 0 mm
03:18 9.5 °C 9.1 °C 1017.2 hPa SW 3.9 km/h 9.3 km/h 97 % 0 mm
03:23 9.5 °C 9.1 °C 1016.8 hPa SSW 7.1 km/h 13 km/h 97 % 0 mm
03:28 9.6 °C 9.1 °C 1016.8 hPa SW 6.9 km/h 11.1 km/h 97 % 0 mm
03:33 9.6 °C 9.1 °C 1016.8 hPa SW 5.6 km/h 9.7 km/h 97 % 0 mm
03:38 9.6 °C 9.3 °C 1016.8 hPa SSW 6.6 km/h 11.1 km/h 98 % 0 mm
03:43 9.6 °C 9.2 °C 1016.8 hPa SW 6.4 km/h 9.3 km/h 97 % 0 mm
03:48 9.7 °C 9.4 °C 1016.8 hPa WSW 3.5 km/h 5.6 km/h 98 % 0 mm
03:53 9.7 °C 9.3 °C 1016.8 hPa SW 4.2 km/h 6.4 km/h 97 % 0 mm
03:58 9.7 °C 9.3 °C 1016.8 hPa SSW 4.8 km/h 9.3 km/h 97 % 0 mm
04:03 9.8 °C 9.3 °C 1017.2 hPa SW 4.7 km/h 7.4 km/h 97 % 0 mm
04:09 9.8 °C 9.3 °C 1017.2 hPa SW 4 km/h 7.4 km/h 97 % 0 mm
04:14 9.8 °C 9.4 °C 1017.2 hPa WSW 2.4 km/h 5.6 km/h 97 % 0 mm
04:19 9.8 °C 9.6 °C 1016.8 hPa SW 1.8 km/h 7.4 km/h 98 % 0 mm
04:24 9.9 °C 9.6 °C 1016.8 hPa SSW 6 km/h 9.7 km/h 98 % 0 mm
04:29 9.9 °C 9.6 °C 1017.2 hPa WSW 4.7 km/h 7.4 km/h 98 % 0 mm
04:34 9.9 °C 9.6 °C 1016.8 hPa SW 4.8 km/h 7.4 km/h 98 % 0 mm
04:39 9.9 °C 9.6 °C 1017.2 hPa WSW 6.9 km/h 9.3 km/h 98 % 0 mm
04:44 9.9 °C 9.7 °C 1017.2 hPa SW 5.8 km/h 9.3 km/h 98 % 0 mm
04:49 9.9 °C 9.7 °C 1017.2 hPa SW 4.2 km/h 6.4 km/h 98 % 0 mm
04:54 9.9 °C 9.7 °C 1017.2 hPa SW 4.8 km/h 6.4 km/h 98 % 0 mm
04:59 10 °C 9.7 °C 1017.2 hPa WSW 4.2 km/h 6.4 km/h 98 % 0 mm
05:04 10 °C 9.7 °C 1017.2 hPa SW 1.4 km/h 3.7 km/h 98 % 0 mm
05:09 10 °C 9.7 °C 1017.2 hPa SSW 5.5 km/h 7.4 km/h 98 % 0 mm
05:14 10.1 °C 9.8 °C 1017.2 hPa WSW 2.9 km/h 5.6 km/h 98 % 0 mm
05:19 10 °C 9.7 °C 1017.2 hPa SW 5.1 km/h 7.4 km/h 98 % 0 mm
05:24 10.1 °C 9.8 °C 1017.2 hPa SW 5 km/h 11.1 km/h 98 % 0 mm
05:30 10.1 °C 9.8 °C 1017.5 hPa SW 3.7 km/h 7.4 km/h 98 % 0 mm
05:35 10.1 °C 9.8 °C 1017.5 hPa SSW 0.5 km/h 11.1 km/h 98 % 0 mm
05:40 10.1 °C 9.8 °C 1017.2 hPa WSW 3.2 km/h 7.4 km/h 98 % 0 mm
05:45 10.1 °C 9.8 °C 1017.5 hPa WSW 1.6 km/h 5.6 km/h 98 % 0 mm
05:50 10.1 °C 9.8 °C 1017.5 hPa SW 0.2 km/h 5.6 km/h 98 % 0 mm
05:55 10.1 °C 9.8 °C 1017.5 hPa SW 3.4 km/h 6.4 km/h 98 % 0 mm
06:00 10.1 °C 9.8 °C 1017.5 hPa SW 1 km/h 5.6 km/h 98 % 0 mm
06:05 10.1 °C 9.8 °C 1017.5 hPa SW 3.1 km/h 5.6 km/h 98 % 0 mm
06:10 10.1 °C 9.8 °C 1017.5 hPa SW 2.4 km/h 3.7 km/h 98 % 0 mm
06:15 10.1 °C 9.8 °C 1017.5 hPa SW 0.5 km/h 3.7 km/h 98 % 0 mm
06:20 10.1 °C 9.8 °C 1017.5 hPa SW 0.8 km/h 5.6 km/h 98 % 0 mm
06:25 10.1 °C 9.8 °C 1017.8 hPa West 3.2 km/h 5.6 km/h 98 % 0 mm
06:30 10 °C 9.7 °C 1017.8 hPa SW 2.6 km/h 5.6 km/h 98 % 0 mm
06:35 10 °C 9.7 °C 1017.8 hPa SSW 4.7 km/h 5.6 km/h 98 % 0 mm
06:40 10 °C 9.7 °C 1017.8 hPa SW 5.8 km/h 7.4 km/h 98 % 0 mm
06:45 10.1 °C 9.8 °C 1017.8 hPa SW 3.5 km/h 9.3 km/h 98 % 0 mm
06:50 10.1 °C 9.8 °C 1017.8 hPa WSW 7.4 km/h 7.4 km/h 98 % 0 mm
06:56 10.2 °C 9.9 °C 1017.8 hPa SW 3.2 km/h 12.9 km/h 98 % 0 mm
07:01 10.3 °C 10 °C 1017.8 hPa SSW 9.3 km/h 14.8 km/h 98 % 0 mm
07:06 10.4 °C 10.1 °C 1017.8 hPa SW 10.9 km/h 16.7 km/h 98 % 0 mm
07:11 10.6 °C 10.3 °C 1017.8 hPa SW 9.3 km/h 18.5 km/h 98 % 0 mm
07:16 10.7 °C 10.4 °C 1017.8 hPa SW 8 km/h 14.8 km/h 98 % 0 mm
07:21 10.8 °C 10.5 °C 1017.8 hPa West 8.7 km/h 16.7 km/h 98 % 0 mm
07:26 10.9 °C 10.7 °C 1018.2 hPa WSW 8.2 km/h 14.5 km/h 98 % 0 mm
07:31 11.1 °C 10.8 °C 1018.2 hPa SW 7.4 km/h 16.7 km/h 98 % 0 mm
07:36 11.2 °C 10.9 °C 1018.2 hPa SW 8.4 km/h 16.7 km/h 98 % 0 mm
07:41 11.2 °C 10.9 °C 1018.2 hPa WSW 8.4 km/h 14.5 km/h 98 % 0 mm
07:46 11.3 °C 11.1 °C 1018.2 hPa SW 9.3 km/h 18.5 km/h 98 % 0 mm
07:51 11.3 °C 11.1 °C 1018.2 hPa SSW 8.5 km/h 11.3 km/h 98 % 0 mm
07:56 11.4 °C 11.1 °C 1018.2 hPa SSW 7.4 km/h 12.9 km/h 98 % 0 mm
08:01 11.4 °C 11.2 °C 1018.2 hPa WSW 5.3 km/h 14.5 km/h 98 % 0 mm
08:07 11.5 °C 11.2 °C 1018.2 hPa WSW 11.7 km/h 16.7 km/h 98 % 0 mm
08:12 11.6 °C 11.3 °C 1017.8 hPa WSW 6.4 km/h 11.1 km/h 98 % 0 mm
08:17 11.7 °C 11.4 °C 1018.2 hPa SSW 9.5 km/h 16.7 km/h 98 % 0 mm
08:22 11.7 °C 11.4 °C 1018.2 hPa SSW 7.6 km/h 18.5 km/h 98 % 0 mm
08:27 11.8 °C 11.5 °C 1018.2 hPa WSW 5 km/h 7.4 km/h 98 % 0 mm
08:32 11.8 °C 11.5 °C 1018.2 hPa WSW 10.5 km/h 18.5 km/h 98 % 0 mm
08:37 11.8 °C 11.6 °C 1018.2 hPa WSW 12.4 km/h 25.9 km/h 98 % 0 mm
08:42 11.9 °C 11.6 °C 1018.2 hPa SW 10.8 km/h 14.8 km/h 98 % 0 mm
08:47 11.9 °C 11.6 °C 1018.2 hPa West 9.8 km/h 16.1 km/h 98 % 0 mm
08:52 11.9 °C 11.6 °C 1018.2 hPa SSW 5.3 km/h 9.3 km/h 98 % 0 mm
08:57 11.9 °C 11.6 °C 1018.5 hPa SW 9.3 km/h 14.8 km/h 98 % 0 mm
09:02 11.9 °C 11.6 °C 1018.2 hPa SW 9.2 km/h 16.7 km/h 98 % 0 mm
09:07 11.9 °C 11.6 °C 1018.2 hPa WSW 7.7 km/h 16.7 km/h 98 % 0 mm
09:12 11.9 °C 11.6 °C 1018.2 hPa West 5.8 km/h 9.7 km/h 98 % 0 mm
09:17 12 °C 11.7 °C 1018.2 hPa WSW 11.3 km/h 17.7 km/h 98 % 0 mm
09:22 12.1 °C 11.7 °C 1018.2 hPa SSW 3.9 km/h 14.8 km/h 98 % 0 mm
09:27 12.2 °C 11.8 °C 1018.2 hPa West 7.7 km/h 11.3 km/h 98 % 0 mm
09:32 12.2 °C 11.9 °C 1018.2 hPa West 6.3 km/h 11.1 km/h 98 % 0 mm
09:37 12.2 °C 11.9 °C 1018.2 hPa SSW 9 km/h 11.1 km/h 98 % 0 mm
09:42 12.3 °C 11.9 °C 1018.2 hPa SSW 1.6 km/h 11.1 km/h 98 % 0 mm
09:47 12.4 °C 12.1 °C 1018.2 hPa SW 6.1 km/h 9.3 km/h 98 % 0 mm
09:53 12.4 °C 12.1 °C 1018.2 hPa WSW 6.4 km/h 11.1 km/h 98 % 0 mm
09:58 12.5 °C 12.2 °C 1018.2 hPa West 3.2 km/h 13 km/h 98 % 0 mm
10:03 12.6 °C 12.2 °C 1018.2 hPa WSW 2.7 km/h 9.7 km/h 98 % 0 mm
10:08 12.7 °C 12.3 °C 1018.2 hPa WSW 8 km/h 16.7 km/h 98 % 0 mm
10:13 12.7 °C 12.4 °C 1018.2 hPa SW 8.2 km/h 13 km/h 98 % 0 mm
10:18 12.8 °C 12.4 °C 1018.2 hPa West 1.3 km/h 3.7 km/h 98 % 0 mm
10:23 12.8 °C 12.5 °C 1018.2 hPa WSW 4 km/h 7.4 km/h 98 % 0 mm
10:28 12.9 °C 12.6 °C 1018.2 hPa WSW 6 km/h 11.1 km/h 98 % 0 mm
10:33 13 °C 12.7 °C 1018.2 hPa WSW 5.6 km/h 9.7 km/h 98 % 0 mm
10:38 13.1 °C 12.7 °C 1018.2 hPa South 6.1 km/h 9.3 km/h 97 % 0 mm
10:43 13.3 °C 12.8 °C 1018.2 hPa WSW 6 km/h 9.3 km/h 97 % 0 mm
10:48 13.4 °C 13 °C 1018.2 hPa SSW 5.5 km/h 9.3 km/h 97 % 0 mm
10:53 13.6 °C 13.2 °C 1018.2 hPa SW 3.1 km/h 13 km/h 97 % 0 mm
10:58 13.8 °C 13.4 °C 1018.2 hPa SW 8.4 km/h 13 km/h 97 % 0 mm
11:03 14.1 °C 13.4 °C 1018.2 hPa WSW 6.6 km/h 14.5 km/h 96 % 0 mm
11:08 14.3 °C 13.5 °C 1017.8 hPa WSW 5.8 km/h 11.1 km/h 95 % 0 mm
11:13 14.5 °C 13.6 °C 1017.8 hPa SW 8 km/h 18.5 km/h 94 % 0 mm
11:18 14.7 °C 13.6 °C 1017.8 hPa West 2.7 km/h 13 km/h 93 % 0 mm
11:23 14.9 °C 13.6 °C 1017.8 hPa WNW 4 km/h 9.3 km/h 92 % 0 mm
11:29 15.1 °C 13.7 °C 1017.8 hPa South 7.1 km/h 13 km/h 91 % 0 mm
11:34 15.3 °C 13.7 °C 1017.8 hPa SSW 5 km/h 14.8 km/h 90 % 0 mm
11:39 15.7 °C 13.8 °C 1017.8 hPa SW 3.5 km/h 14.8 km/h 89 % 0 mm
11:44 15.9 °C 13.9 °C 1017.8 hPa South 10.6 km/h 18.5 km/h 88 % 0 mm
11:49 16.2 °C 13.9 °C 1017.8 hPa SW 13.5 km/h 22.2 km/h 86 % 0 mm
11:54 16.4 °C 14.1 °C 1017.8 hPa WSW 7.2 km/h 13 km/h 86 % 0 mm
12:00 16.6 °C 14.1 °C 1017.5 hPa SW 9.7 km/h 13 km/h 85 % 0 mm
12:05 16.7 °C 13.8 °C 1017.5 hPa West 4.3 km/h 7.4 km/h 83 % 0 mm
12:10 16.8 °C 13.5 °C 1017.5 hPa West 8.9 km/h 9.7 km/h 81 % 0 mm
12:15 16.8 °C 13.6 °C 1017.2 hPa West 8 km/h 14.8 km/h 81 % 0 mm
12:20 16.9 °C 13.8 °C 1017.2 hPa SW 1.6 km/h 9.3 km/h 82 % 0 mm
12:25 17.1 °C 13.6 °C 1017.2 hPa WNW 8 km/h 11.1 km/h 80 % 0 mm
12:30 17.2 °C 13.7 °C 1016.8 hPa WSW 5.6 km/h 16.1 km/h 80 % 0 mm
12:35 17.3 °C 13.7 °C 1016.8 hPa WSW 5.5 km/h 9.3 km/h 79 % 0 mm
12:40 17.4 °C 13.6 °C 1016.8 hPa WSW 6.4 km/h 11.1 km/h 78 % 0 mm
12:45 17.7 °C 13.8 °C 1016.8 hPa WSW 3.9 km/h 16.7 km/h 78 % 0 mm
12:50 17.7 °C 13.4 °C 1016.8 hPa SW 11.4 km/h 16.7 km/h 76 % 0 mm
12:55 17.8 °C 13.7 °C 1016.8 hPa SW 4.3 km/h 7.4 km/h 77 % 0 mm
13:00 17.9 °C 13.8 °C 1016.5 hPa West 2.7 km/h 5.6 km/h 77 % 0 mm
13:05 18.2 °C 14.1 °C 1016.5 hPa SW 9.7 km/h 14.8 km/h 77 % 0 mm
13:10 18.3 °C 14 °C 1016.5 hPa WSW 2.4 km/h 5.6 km/h 76 % 0 mm
13:15 18.6 °C 14.1 °C 1016.5 hPa WSW 2.3 km/h 5.6 km/h 75 % 0 mm
13:20 18.7 °C 14.2 °C 1016.5 hPa WSW 5.6 km/h 5.6 km/h 75 % 0 mm
13:25 18.8 °C 14.3 °C 1016.5 hPa WSW 2.4 km/h 3.7 km/h 75 % 0 mm
13:30 19 °C 14.3 °C 1016.5 hPa WNW 4 km/h 9.3 km/h 74 % 0 mm
13:36 19.1 °C 13.9 °C 1016.5 hPa West 8 km/h 12.9 km/h 72 % 0 mm
13:41 19.2 °C 14 °C 1016.5 hPa West 3.2 km/h 11.3 km/h 72 % 0 mm
13:46 19.1 °C 13.7 °C 1016.5 hPa WSW 3.2 km/h 12.9 km/h 71 % 0 mm
13:51 19.1 °C 13.9 °C 1016.1 hPa WSW 3.2 km/h 8 km/h 72 % 0 mm
13:56 19.2 °C 14 °C 1016.1 hPa SSW 6.1 km/h 9.3 km/h 72 % 0 mm
14:01 19.3 °C 14.4 °C 1016.5 hPa WSW 5 km/h 14.8 km/h 73 % 0 mm
14:06 19.6 °C 14.4 °C 1016.5 hPa West 3.4 km/h 7.4 km/h 72 % 0 mm
14:11 19.7 °C 14.1 °C 1016.5 hPa West 6.8 km/h 9.3 km/h 70 % 0 mm
14:16 19.7 °C 14.1 °C 1016.5 hPa West 6.1 km/h 11.3 km/h 70 % 0 mm
14:21 19.8 °C 13.9 °C 1016.5 hPa WSW 6.4 km/h 12.9 km/h 69 % 0 mm
14:26 19.8 °C 14.2 °C 1016.5 hPa WNW 6.9 km/h 11.3 km/h 70 % 0 mm
14:31 19.8 °C 14.2 °C 1016.5 hPa SSW 3.1 km/h 11.1 km/h 70 % 0 mm
14:36 19.8 °C 14.6 °C 1016.5 hPa WSW 3.4 km/h 9.3 km/h 72 % 0 mm
14:41 19.9 °C 14.5 °C 1016.1 hPa South 4.3 km/h 9.3 km/h 71 % 0 mm
14:46 20 °C 14.3 °C 1016.1 hPa SSW 2.7 km/h 11.1 km/h 70 % 0 mm
14:51 20 °C 14.3 °C 1016.5 hPa WSW 8.4 km/h 14.8 km/h 70 % 0 mm
14:56 20 °C 14.1 °C 1016.1 hPa SW 5.8 km/h 13 km/h 69 % 0 mm
15:01 20 °C 14.1 °C 1016.5 hPa SW 4.7 km/h 11.1 km/h 69 % 0 mm
15:06 19.9 °C 14.1 °C 1016.1 hPa SSW 7.2 km/h 11.1 km/h 69 % 0 mm
15:11 19.9 °C 14.3 °C 1016.1 hPa SSW 4.3 km/h 9.7 km/h 70 % 0 mm
15:16 19.9 °C 14.1 °C 1016.1 hPa West 5.3 km/h 11.1 km/h 69 % 0 mm
15:21 19.8 °C 14.2 °C 1016.1 hPa SSW 6.1 km/h 7.4 km/h 70 % 0 mm
15:26 19.8 °C 14.2 °C 1016.1 hPa SW 4.5 km/h 9.3 km/h 70 % 0 mm
15:31 19.8 °C 14.2 °C 1016.1 hPa South 9.3 km/h 13 km/h 70 % 0 mm
15:36 19.7 °C 14.1 °C 1016.5 hPa WSW 7.9 km/h 13 km/h 70 % 0 mm
15:42 19.7 °C 14.1 °C 1016.5 hPa SW 8.5 km/h 13 km/h 70 % 0 mm
15:47 19.7 °C 14.1 °C 1016.1 hPa SSW 4.2 km/h 14.8 km/h 70 % 0 mm
15:52 19.7 °C 14.3 °C 1016.1 hPa SSW 4.3 km/h 9.3 km/h 71 % 0 mm
15:57 19.7 °C 14.1 °C 1016.1 hPa SW 9.3 km/h 18.5 km/h 70 % 0 mm
16:02 19.7 °C 14.1 °C 1016.1 hPa South 8 km/h 18.5 km/h 70 % 0 mm
16:07 19.6 °C 14 °C 1016.1 hPa SW 7.2 km/h 14.8 km/h 70 % 0 mm
16:12 19.6 °C 13.9 °C 1016.5 hPa SW 9 km/h 11.3 km/h 70 % 0 mm
16:17 19.5 °C 14.1 °C 1016.1 hPa SW 3.2 km/h 7.4 km/h 71 % 0 mm
16:22 19.5 °C 14.1 °C 1016.5 hPa SW 0.2 km/h 1.9 km/h 71 % 0 mm
16:27 19.5 °C 14.3 °C 1016.5 hPa SW 1.3 km/h 3.7 km/h 72 % 0 mm
16:32 19.4 °C 14.3 °C 1016.5 hPa South 2.7 km/h 6.4 km/h 72 % 0 mm
16:37 19.4 °C 14.2 °C 1016.5 hPa SW 2.1 km/h 5.6 km/h 72 % 0 mm
16:42 19.4 °C 14.2 °C 1016.8 hPa SW 4 km/h 7.4 km/h 72 % 0 mm
16:47 19.3 °C 14.2 °C 1016.8 hPa WSW 0.6 km/h 9.3 km/h 72 % 0 mm
16:53 19.3 °C 14.1 °C 1016.8 hPa SW 2.9 km/h 5.6 km/h 72 % 0 mm
16:58 19.2 °C 14.1 °C 1016.8 hPa SW 1.9 km/h 5.6 km/h 72 % 0 mm
17:03 19.2 °C 14 °C 1016.8 hPa WSW 2.7 km/h 5.6 km/h 72 % 0 mm
17:08 19.1 °C 13.9 °C 1016.8 hPa Calm   1.9 km/h 72 % 0 mm
17:13 19 °C 14.1 °C 1016.8 hPa SSW 0.8 km/h 5.6 km/h 73 % 0 mm
17:18 18.9 °C 13.9 °C 1016.8 hPa SSW 0.8 km/h 3.7 km/h 73 % 0 mm
17:23 18.8 °C 13.8 °C 1017.2 hPa South 2.7 km/h 5.6 km/h 73 % 0 mm
17:28 18.6 °C 13.6 °C 1017.2 hPa South 2.9 km/h 5.6 km/h 73 % 0 mm
17:33 18.4 °C 13.5 °C 1017.2 hPa South 0.5 km/h 5.6 km/h 73 % 0 mm
17:38 18.3 °C 13.3 °C 1017.5 hPa South 2.1 km/h 7.4 km/h 73 % 0 mm
17:43 18 °C 13.3 °C 1017.5 hPa SSW 1 km/h 5.6 km/h 74 % 0 mm
17:48 17.8 °C 13.1 °C 1017.5 hPa SSW 1 km/h 1.9 km/h 74 % 0 mm
17:53 17.6 °C 13.1 °C 1017.5 hPa SSW 2.7 km/h 6.4 km/h 75 % 0 mm
17:58 17.4 °C 12.9 °C 1017.5 hPa Calm   1.9 km/h 75 % 0 mm
18:03 17.2 °C 12.9 °C 1017.5 hPa SSW 0.2 km/h 5.6 km/h 76 % 0 mm
18:13 16.9 °C 12.8 °C 1017.5 hPa SSW 0.8 km/h 5.6 km/h 77 % 0 mm
18:18 16.8 °C 12.9 °C 1017.5 hPa Calm   1.9 km/h 78 % 0 mm
18:24 16.6 °C 12.7 °C 1017.5 hPa Calm     78 % 0 mm
18:29 16.4 °C 12.8 °C 1017.5 hPa Calm   7.4 km/h 79 % 0 mm
18:34 16.3 °C 12.6 °C 1017.5 hPa SSW 0.5 km/h 1.9 km/h 79 % 0 mm
18:39 16.2 °C 12.5 °C 1017.5 hPa SSW 2.4 km/h 5.6 km/h 79 % 0 mm
18:44 16 °C 12.6 °C 1017.8 hPa SSW 0.3 km/h 3.7 km/h 80 % 0 mm
18:49 15.8 °C 12.4 °C 1017.8 hPa SSW 2.6 km/h 5.6 km/h 80 % 0 mm
18:54 15.7 °C 12.4 °C 1017.5 hPa SSW 2.3 km/h 5.6 km/h 81 % 0 mm
18:59 15.5 °C 12.3 °C 1017.8 hPa SSW 2.7 km/h 4.8 km/h 81 % 0 mm
19:04 15.3 °C 12.3 °C 1017.8 hPa SSW 2.9 km/h 5.6 km/h 82 % 0 mm
19:09 15.2 °C 12.1 °C 1017.5 hPa SSW 2.3 km/h 3.7 km/h 82 % 0 mm
19:14 15.1 °C 12.2 °C 1017.8 hPa SSW 1.4 km/h 5.6 km/h 83 % 0 mm
19:19 14.8 °C 11.9 °C 1017.8 hPa SSW 1.9 km/h 7.4 km/h 83 % 0 mm
19:24 14.7 °C 12 °C 1017.8 hPa South 3.1 km/h 8 km/h 84 % 0 mm
19:29 14.5 °C 11.8 °C 1017.8 hPa SSW 4 km/h 9.7 km/h 84 % 0 mm
19:34 14.3 °C 11.7 °C 1017.8 hPa South 3.1 km/h 5.6 km/h 84 % 0 mm
19:39 14.2 °C 11.5 °C 1017.8 hPa South 3.5 km/h 9.3 km/h 84 % 0 mm
19:45 14 °C 11.5 °C 1017.8 hPa SSW 1.6 km/h 7.4 km/h 85 % 0 mm
19:50 13.9 °C 11.4 °C 1017.8 hPa South 2.9 km/h 5.6 km/h 85 % 0 mm
19:55 13.7 °C 11.4 °C 1017.8 hPa South 4.2 km/h 6.4 km/h 86 % 0 mm
20:00 13.6 °C 11.3 °C 1017.8 hPa South 2.1 km/h 7.4 km/h 86 % 0 mm
20:05 13.5 °C 11.2 °C 1017.8 hPa SSW 5.6 km/h 8 km/h 86 % 0 mm
20:10 13.3 °C 11.2 °C 1017.8 hPa SSW 4.7 km/h 8 km/h 87 % 0 mm
20:15 13.2 °C 11.1 °C 1017.8 hPa SSW 2.7 km/h 5.6 km/h 87 % 0 mm
20:20 13.1 °C 11.2 °C 1017.8 hPa SSW 4.5 km/h 7.4 km/h 88 % 0 mm
20:25 13.1 °C 11.1 °C 1017.8 hPa SSW 3.9 km/h 5.6 km/h 88 % 0 mm
20:30 13 °C 11.1 °C 1017.8 hPa SSW 2.9 km/h 6.4 km/h 88 % 0 mm
20:35 13 °C 11.1 °C 1017.8 hPa South 0.6 km/h 3.2 km/h 88 % 0 mm
20:40 12.9 °C 11 °C 1017.8 hPa SSW 2.6 km/h 6.4 km/h 88 % 0 mm
20:45 12.9 °C 10.9 °C 1017.8 hPa SW 3.5 km/h 7.4 km/h 88 % 0 mm
20:50 12.8 °C 10.9 °C 1017.8 hPa SW 2.6 km/h 3.2 km/h 88 % 0 mm
20:55 12.8 °C 11 °C 1017.8 hPa SW 1 km/h 3.7 km/h 89 % 0 mm
21:00 12.8 °C 11 °C 1017.8 hPa Calm   1.9 km/h 89 % 0 mm
21:05 12.8 °C 11 °C 1018.2 hPa SW 1.6 km/h 1.6 km/h 89 % 0 mm
21:11 12.7 °C 10.9 °C 1017.8 hPa SW 1.6 km/h 6.4 km/h 89 % 0 mm
21:16 12.7 °C 11.2 °C 1018.2 hPa SSW 1.6 km/h 8 km/h 90 % 0 mm
21:20 12.7 °C 11.1 °C 1018.2 hPa SW 0.6 km/h 5.6 km/h 90 % 0 mm
21:25 12.7 °C 11.1 °C 1018.2 hPa Calm   6.4 km/h 90 % 0 mm
21:30 12.7 °C 11.1 °C 1018.2 hPa SW 1.6 km/h 8 km/h 90 % 0 mm
21:35 12.7 °C 11.1 °C 1018.2 hPa SW 0.6 km/h 3.7 km/h 90 % 0 mm
21:41 12.7 °C 11.1 °C 1018.2 hPa SW 3.2 km/h 8 km/h 90 % 0 mm
21:46 12.7 °C 11.1 °C 1018.2 hPa SW 3.2 km/h 8 km/h 90 % 0 mm
21:51 12.7 °C 11.1 °C 1018.2 hPa SW 1.6 km/h 6.4 km/h 90 % 0 mm
21:56 12.7 °C 11.1 °C 1018.2 hPa Calm   4.8 km/h 90 % 0 mm
22:01 12.7 °C 11.2 °C 1018.2 hPa South 3.7 km/h 5.6 km/h 91 % 0 mm
22:06 12.7 °C 11.2 °C 1018.2 hPa SW 1.8 km/h 11.1 km/h 91 % 0 mm
22:11 12.7 °C 11.2 °C 1018.2 hPa SSW 1.9 km/h 9.3 km/h 91 % 0 mm
22:16 12.7 °C 11.2 °C 1018.2 hPa SW 0.8 km/h 5.6 km/h 91 % 0 mm
22:21 12.7 °C 11.2 °C 1018.2 hPa South 6.3 km/h 13 km/h 91 % 0 mm
22:26 12.7 °C 11.2 °C 1018.2 hPa South 5.5 km/h 13 km/h 91 % 0 mm
22:31 12.7 °C 11.2 °C 1018.2 hPa SSW 2.9 km/h 6.4 km/h 91 % 0 mm
22:36 12.7 °C 11.2 °C 1017.8 hPa SW 6.1 km/h 11.1 km/h 91 % 0 mm
22:41 12.7 °C 11.2 °C 1017.8 hPa SW 1.8 km/h 5.6 km/h 91 % 0 mm
22:46 12.7 °C 11.2 °C 1017.8 hPa SW 2.7 km/h 5.6 km/h 91 % 0 mm
22:51 12.7 °C 11.4 °C 1017.8 hPa South 5.8 km/h 9.3 km/h 92 % 0 mm
22:56 12.7 °C 11.4 °C 1018.2 hPa South 2.9 km/h 5.6 km/h 92 % 0 mm
23:01 12.7 °C 11.4 °C 1017.8 hPa SSW 2.4 km/h 8 km/h 92 % 0 mm
23:06 12.7 °C 11.4 °C 1018.2 hPa SSW 6 km/h 13 km/h 92 % 0 mm
23:11 12.8 °C 11.5 °C 1017.8 hPa SSW 7.7 km/h 11.3 km/h 92 % 0 mm
23:16 12.8 °C 11.7 °C 1018.2 hPa SSW 5.8 km/h 11.1 km/h 93 % 0 mm
23:21 12.8 °C 11.7 °C 1018.2 hPa WSW 6 km/h 9.3 km/h 93 % 0 mm
23:26 12.8 °C 11.7 °C 1017.8 hPa SSW 2.4 km/h 5.6 km/h 93 % 0 mm
23:32 12.8 °C 11.7 °C 1018.2 hPa SW 4 km/h 11.1 km/h 93 % 0 mm
23:37 12.7 °C 11.6 °C 1018.2 hPa SW 6.6 km/h 11.1 km/h 93 % 0 mm
23:42 12.7 °C 11.4 °C 1018.2 hPa SW 6.9 km/h 12.9 km/h 92 % 0 mm
23:47 12.6 °C 11.3 °C 1018.5 hPa South 5.3 km/h 7.4 km/h 92 % 0 mm
23:52 12.5 °C 11.4 °C 1018.2 hPa WSW 3.2 km/h 5.6 km/h 93 % 0 mm
23:57 12.4 °C 11.3 °C 1018.2 hPa SSW 4.7 km/h 9.3 km/h 93 % 0 mm
Crab Meadow Weather
Compliments of Weather Underground - 3 mb

Script developed by  Jim McMurry - jmcmurry@mwt.net Adapted for the template by  Wim van der Kuil - Leuven-Template.eu

Weather Terms: Winter Storm Warning - Hazardous winter weather conditions that pose a threat to life and/or property are occurring, imminent or likely. The generic term, winter storm warning, is used for a combination of two or more of the following winter weather events; heavy snow, freezing rain, sleet and strong winds.